createdAt,value
2018-05-18T00:00:46.592Z,56.40
2018-05-18T00:03:13.517Z,56.70
2018-05-18T00:05:41.213Z,56.90
2018-05-18T00:08:08.825Z,56.90
2018-05-18T00:10:35.890Z,56.90
2018-05-18T00:13:03.566Z,56.80
2018-05-18T00:15:30.509Z,56.70
2018-05-18T00:17:57.448Z,57.90
2018-05-18T00:20:23.700Z,57.20
2018-05-18T00:22:52.416Z,57.40
2018-05-18T00:25:18.685Z,57.30
2018-05-18T00:27:45.474Z,57.40
2018-05-18T00:30:11.764Z,56.80
2018-05-18T00:32:38.611Z,57.30
2018-05-18T00:35:05.576Z,57.60
2018-05-18T00:37:33.982Z,57.60
2018-05-18T00:40:00.180Z,57.60
2018-05-18T00:42:27.118Z,57.30
2018-05-18T00:44:54.670Z,57.50
2018-05-18T00:47:20.878Z,57.30
2018-05-18T00:49:47.024Z,57.80
2018-05-18T00:52:13.237Z,57.50
2018-05-18T00:54:39.462Z,57.40
2018-05-18T00:57:06.311Z,57.90
2018-05-18T00:59:32.524Z,58.30
2018-05-18T01:01:58.693Z,58.70
2018-05-18T01:04:26.353Z,58.50
2018-05-18T01:06:52.532Z,58.50
2018-05-18T01:09:18.755Z,58.60
2018-05-18T01:11:45.044Z,58.70
2018-05-18T01:14:11.963Z,58.70
2018-05-18T01:16:38.222Z,58.70
2018-05-18T01:19:06.125Z,60.00
2018-05-18T01:21:32.387Z,59.40
2018-05-18T01:23:58.646Z,59.10
2018-05-18T01:26:26.859Z,59.00
2018-05-18T01:28:53.796Z,59.00
2018-05-18T01:31:20.007Z,59.30
2018-05-18T01:33:47.795Z,59.70
2018-05-18T01:36:14.059Z,59.50
2018-05-18T01:38:41.276Z,59.20
2018-05-18T01:41:07.470Z,59.40
2018-05-18T01:43:36.071Z,59.00
2018-05-18T01:46:03.033Z,59.30
2018-05-18T01:48:29.242Z,59.20
2018-05-18T01:50:56.900Z,59.30
2018-05-18T01:53:25.213Z,59.30
2018-05-18T01:55:51.419Z,59.30
2018-05-18T01:58:18.475Z,59.50
2018-05-18T02:00:44.723Z,59.30
2018-05-18T02:03:10.983Z,59.50
2018-05-18T02:05:37.162Z,58.90
2018-05-18T02:08:04.934Z,59.20
2018-05-18T02:10:31.724Z,59.20
2018-05-18T02:12:58.901Z,59.70
2018-05-18T02:15:25.926Z,59.20
2018-05-18T02:17:54.329Z,59.40
2018-05-18T02:20:21.882Z,59.40
2018-05-18T02:22:49.590Z,60.20
2018-05-18T02:25:16.677Z,59.50
2018-05-18T02:27:44.358Z,59.60
2018-05-18T02:30:11.349Z,60.20
2018-05-18T02:32:37.564Z,60.00
2018-05-18T02:35:05.371Z,59.90
2018-05-18T02:37:32.147Z,60.40
2018-05-18T02:40:00.060Z,60.40
2018-05-18T02:42:26.272Z,60.30
2018-05-18T02:44:52.509Z,60.30
2018-05-18T02:47:18.664Z,60.30
2018-05-18T02:49:44.851Z,60.30
2018-05-18T02:52:11.077Z,60.20
2018-05-18T02:54:37.265Z,60.20
2018-05-18T02:57:05.928Z,60.30
2018-05-18T02:59:32.156Z,60.20
2018-05-18T03:01:58.368Z,60.10
2018-05-18T03:04:24.566Z,60.20
2018-05-18T03:06:51.544Z,60.20
2018-05-18T03:09:17.721Z,60.30
2018-05-18T03:11:44.699Z,60.70
2018-05-18T03:14:10.917Z,60.20
2018-05-18T03:16:38.526Z,60.30
2018-05-18T03:19:05.434Z,60.20
2018-05-18T03:21:31.620Z,60.70
2018-05-18T03:23:58.813Z,60.90
2018-05-18T03:26:25.017Z,60.50
2018-05-18T03:28:51.932Z,61.10
2018-05-18T03:31:19.120Z,60.90
2018-05-18T03:33:46.037Z,61.40
2018-05-18T03:36:12.226Z,61.40
2018-05-18T03:38:38.450Z,61.50
2018-05-18T03:41:05.346Z,61.50
2018-05-18T03:43:33.049Z,62.30
2018-05-18T03:46:01.564Z,62.20
2018-05-18T03:48:28.665Z,62.00
2018-05-18T03:50:55.658Z,61.90
2018-05-18T03:53:21.889Z,61.80
2018-05-18T03:55:48.106Z,62.70
2018-05-18T03:58:15.185Z,62.20
2018-05-18T04:00:41.350Z,62.80
2018-05-18T04:03:21.331Z,62.90
2018-05-18T04:05:59.799Z,62.90
2018-05-18T04:08:50.828Z,62.60
2018-05-18T04:11:18.416Z,62.40
2018-05-18T04:13:44.617Z,62.40
2018-05-18T04:16:11.561Z,62.50
2018-05-18T04:18:38.557Z,62.30
2018-05-18T04:21:04.793Z,62.30
2018-05-18T04:23:31.655Z,62.20
2018-05-18T04:25:59.246Z,62.50
2018-05-18T04:28:32.402Z,62.90
2018-05-18T04:31:01.673Z,62.80
2018-05-18T04:33:27.885Z,62.10
2018-05-18T04:35:55.137Z,62.40
2018-05-18T04:38:21.962Z,62.40
2018-05-18T04:40:50.274Z,62.10
2018-05-18T04:43:17.208Z,62.10
2018-05-18T04:45:45.808Z,61.90
2018-05-18T04:48:15.751Z,62.40
2018-05-18T04:50:42.065Z,61.80
2018-05-18T04:53:08.255Z,61.80
2018-05-18T04:55:34.488Z,62.00
2018-05-18T04:58:00.700Z,61.40
2018-05-18T05:00:26.893Z,60.60
2018-05-18T05:02:53.129Z,61.40
2018-05-18T05:05:20.751Z,60.60
2018-05-18T05:07:47.674Z,61.30
2018-05-18T05:10:13.817Z,61.30
2018-05-18T05:12:40.116Z,60.10
2018-05-18T05:15:06.300Z,59.80
2018-05-18T05:17:32.504Z,59.80
2018-05-18T05:19:58.730Z,58.60
2018-05-18T05:22:25.034Z,58.80
2018-05-18T05:24:51.985Z,58.80
2018-05-18T05:27:18.936Z,59.20
2018-05-18T05:29:45.873Z,58.90
2018-05-18T05:32:12.843Z,58.50
2018-05-18T05:34:39.072Z,58.50
2018-05-18T05:37:05.337Z,58.40
2018-05-18T05:39:31.558Z,57.90
2018-05-18T05:41:58.721Z,57.50
2018-05-18T05:44:25.543Z,56.70
2018-05-18T05:46:55.571Z,57.70
2018-05-18T05:49:21.813Z,56.70
2018-05-18T05:51:49.568Z,55.40
2018-05-18T05:54:15.796Z,56.20
2018-05-18T05:56:41.981Z,56.40
2018-05-18T05:59:08.928Z,55.50
2018-05-18T06:01:35.911Z,55.30
2018-05-18T06:04:02.162Z,55.30
2018-05-18T06:06:29.128Z,53.30
2018-05-18T06:08:56.060Z,54.00
2018-05-18T06:11:22.251Z,53.70
2018-05-18T06:13:48.486Z,52.80
2018-05-18T06:16:14.692Z,52.60
2018-05-18T06:18:40.922Z,52.50
2018-05-18T06:21:07.073Z,50.50
2018-05-18T06:23:33.277Z,52.90
2018-05-18T06:25:59.454Z,50.40
2018-05-18T06:28:25.665Z,51.30
2018-05-18T06:30:51.852Z,49.00
2018-05-18T06:33:18.094Z,49.60
2018-05-18T06:35:44.295Z,49.10
2018-05-18T06:38:11.221Z,47.40
2018-05-18T06:40:37.457Z,47.30
2018-05-18T06:43:04.450Z,49.80
2018-05-18T06:45:30.686Z,49.90
2018-05-18T06:47:56.873Z,48.40
2018-05-18T06:50:23.861Z,48.40
2018-05-18T06:52:50.044Z,47.70
2018-05-18T06:55:16.980Z,46.90
2018-05-18T06:57:43.262Z,46.50
2018-05-18T07:00:09.475Z,44.50
2018-05-18T07:02:35.629Z,46.40
2018-05-18T07:05:01.805Z,44.30
2018-05-18T07:07:28.729Z,44.80
2018-05-18T07:09:54.938Z,44.70
2018-05-18T07:12:21.147Z,44.70
2018-05-18T07:14:47.381Z,44.80
2018-05-18T07:17:13.601Z,45.30
2018-05-18T07:19:39.771Z,43.30
2018-05-18T07:22:06.004Z,43.10
2018-05-18T07:24:47.140Z,43.20
2018-05-18T07:27:13.374Z,42.00
2018-05-18T07:29:39.585Z,42.30
2018-05-18T07:32:05.825Z,41.10
2018-05-18T07:34:32.032Z,42.30
2018-05-18T07:36:58.247Z,42.00
2018-05-18T07:39:26.005Z,42.20
2018-05-18T07:41:52.200Z,42.20
2018-05-18T07:44:18.399Z,44.00
2018-05-18T07:46:44.607Z,44.20
2018-05-18T07:49:11.544Z,43.70
2018-05-18T07:51:38.471Z,43.00
2018-05-18T07:54:04.676Z,43.20
2018-05-18T07:56:30.910Z,43.60
2018-05-18T07:58:57.134Z,41.70
2018-05-18T08:01:23.350Z,42.20
2018-05-18T08:03:49.581Z,40.80
2018-05-18T08:06:15.792Z,42.10
2018-05-18T08:08:41.991Z,39.80
2018-05-18T08:11:08.910Z,41.80
2018-05-18T08:13:35.121Z,41.70
2018-05-18T08:16:01.349Z,41.20
2018-05-18T08:18:27.564Z,39.30
2018-05-18T08:20:53.739Z,40.20
2018-05-18T08:23:19.965Z,42.10
2018-05-18T08:25:46.196Z,42.20
2018-05-18T08:28:12.391Z,42.70
2018-05-18T08:30:50.782Z,42.70
2018-05-18T08:33:16.971Z,42.30
2018-05-18T08:35:43.894Z,44.30
2018-05-18T08:38:10.074Z,44.20
2018-05-18T08:40:36.302Z,44.60
2018-05-18T08:43:03.412Z,43.10
2018-05-18T08:45:30.394Z,43.90
2018-05-18T08:47:57.275Z,44.70
2018-05-18T08:50:23.503Z,45.00
2018-05-18T08:52:49.660Z,43.80
2018-05-18T08:55:15.867Z,44.50
2018-05-18T08:57:42.098Z,43.60
2018-05-18T09:00:08.364Z,43.70
2018-05-18T09:02:35.305Z,41.80
2018-05-18T09:05:02.307Z,41.10
2018-05-18T09:07:28.522Z,40.90
2018-05-18T09:09:54.672Z,40.60
2018-05-18T09:12:20.877Z,39.70
2018-05-18T09:14:47.068Z,41.50
2018-05-18T09:17:13.997Z,39.70
2018-05-18T09:19:40.202Z,39.70
2018-05-18T09:22:06.392Z,40.30
2018-05-18T09:24:32.594Z,40.30
2018-05-18T09:26:58.823Z,41.50
2018-05-18T09:29:25.732Z,42.60
2018-05-18T09:31:51.933Z,42.60
2018-05-18T09:34:18.208Z,42.00
2018-05-18T09:36:44.360Z,42.60
2018-05-18T09:39:10.555Z,41.80
2018-05-18T09:41:36.721Z,42.30
2018-05-18T09:44:03.685Z,43.00
2018-05-18T09:46:29.898Z,43.00
2018-05-18T09:48:56.820Z,43.60
2018-05-18T09:51:23.044Z,43.70
2018-05-18T09:53:49.326Z,43.50
2018-05-18T09:56:15.500Z,45.10
2018-05-18T09:58:41.715Z,45.30
2018-05-18T10:01:07.918Z,44.90
2018-05-18T10:03:34.118Z,45.30
2018-05-18T10:06:01.071Z,45.70
2018-05-18T10:08:28.024Z,46.10
2018-05-18T10:10:54.234Z,46.00
2018-05-18T10:13:21.179Z,46.40
2018-05-18T10:15:48.120Z,46.90
2018-05-18T10:18:15.083Z,47.90
2018-05-18T10:20:42.032Z,47.30
2018-05-18T10:23:08.274Z,47.40
2018-05-18T10:25:34.487Z,47.40
2018-05-18T10:28:01.449Z,47.90
2018-05-18T10:30:29.578Z,47.80
2018-05-18T10:32:55.812Z,47.80
2018-05-18T10:35:21.968Z,46.90
2018-05-18T10:37:48.162Z,46.90
2018-05-18T10:40:14.345Z,46.70
2018-05-18T10:42:40.528Z,47.30
2018-05-18T10:45:07.514Z,46.80
2018-05-18T10:47:33.669Z,46.80
2018-05-18T10:49:59.868Z,47.10
2018-05-18T10:52:26.129Z,47.50
2018-05-18T10:54:52.337Z,46.50
2018-05-18T10:57:18.553Z,46.20
2018-05-18T10:59:44.775Z,46.90
2018-05-18T11:02:10.975Z,46.80
2018-05-18T11:04:37.886Z,46.00
2018-05-18T11:07:04.088Z,46.00
2018-05-18T11:09:30.299Z,46.40
2018-05-18T11:11:56.504Z,45.50
2018-05-18T11:14:23.517Z,45.40
2018-05-18T11:16:49.724Z,45.50
2018-05-18T11:19:15.898Z,46.30
2018-05-18T11:21:42.233Z,46.30
2018-05-18T11:24:08.453Z,46.30
2018-05-18T11:26:34.710Z,46.20
2018-05-18T11:29:01.837Z,47.30
2018-05-18T11:31:27.912Z,47.50
2018-05-18T11:33:54.380Z,45.50
2018-05-18T11:36:20.680Z,46.70
2018-05-18T11:38:46.860Z,45.10
2018-05-18T11:41:13.118Z,44.90
2018-05-18T11:43:40.074Z,46.40
2018-05-18T11:46:06.297Z,46.30
2018-05-18T11:48:32.479Z,45.90
2018-05-18T11:51:13.613Z,44.70
2018-05-18T11:53:39.811Z,44.60
2018-05-18T11:56:07.069Z,44.20
2018-05-18T11:58:34.045Z,44.30
2018-05-18T12:01:00.212Z,44.20
2018-05-18T12:03:26.375Z,45.10
2018-05-18T12:05:53.327Z,44.30
2018-05-18T12:08:20.321Z,43.70
2018-05-18T12:10:47.215Z,43.10
2018-05-18T12:13:14.169Z,42.20
2018-05-18T12:15:41.095Z,42.00
2018-05-18T12:18:08.032Z,42.50
2018-05-18T12:20:34.216Z,42.50
2018-05-18T12:23:01.205Z,43.10
2018-05-18T12:25:28.179Z,43.50
2018-05-18T12:27:55.215Z,43.30
2018-05-18T12:30:24.213Z,43.30
2018-05-18T12:32:55.549Z,41.80
2018-05-18T12:35:22.511Z,42.90
2018-05-18T12:37:49.476Z,40.80
2018-05-18T12:40:16.751Z,40.90
2018-05-18T12:42:43.763Z,41.40
2018-05-18T12:45:10.063Z,41.40
2018-05-18T12:47:37.736Z,41.50
2018-05-18T12:50:03.921Z,41.20
2018-05-18T12:52:30.155Z,40.70
2018-05-18T12:54:56.402Z,42.50
2018-05-18T12:57:22.657Z,42.70
2018-05-18T12:59:49.766Z,43.10
2018-05-18T13:02:16.010Z,43.10
2018-05-18T13:04:42.215Z,43.30
2018-05-18T13:07:08.409Z,43.80
2018-05-18T13:09:35.353Z,43.40
2018-05-18T13:12:02.352Z,43.40
2018-05-18T13:14:28.534Z,43.30
2018-05-18T13:19:44.449Z,44.20
2018-05-18T13:22:10.735Z,44.20
2018-05-18T13:24:36.965Z,43.30
2018-05-18T13:27:03.883Z,43.20
2018-05-18T13:29:30.122Z,43.40
2018-05-18T13:31:56.420Z,65.40
2018-05-18T13:34:22.624Z,63.60
2018-05-18T13:36:51.279Z,42.80
2018-05-18T13:39:17.518Z,49.40
2018-05-18T13:41:44.544Z,42.20
2018-05-18T13:44:10.800Z,71.30
2018-05-18T13:46:38.457Z,43.60
2018-05-18T13:49:04.781Z,43.50
2018-05-18T13:51:31.343Z,43.10
2018-05-18T13:53:57.934Z,44.30
2018-05-18T13:56:25.301Z,44.30
2018-05-18T13:58:51.938Z,43.60
2018-05-18T14:01:18.147Z,47.00
2018-05-18T14:03:44.312Z,45.10
2018-05-18T14:06:10.514Z,44.70
2018-05-18T14:08:36.714Z,48.00
2018-05-18T14:11:05.060Z,45.70
2018-05-18T14:18:27.143Z,65.40
2018-05-18T14:35:41.626Z,48.70
2018-05-18T14:43:04.043Z,45.80
2018-05-18T14:45:30.938Z,45.70
2018-05-18T14:47:57.486Z,46.90
2018-05-18T14:50:24.446Z,45.40
2018-05-18T14:52:51.154Z,45.50
2018-05-18T14:55:17.353Z,66.00
2018-05-18T14:57:43.958Z,52.20
2018-05-18T15:02:39.534Z,46.10
2018-05-18T15:05:06.124Z,45.60
2018-05-18T15:07:33.638Z,44.90
2018-05-18T15:12:28.481Z,46.00
2018-05-18T15:14:55.038Z,46.70
2018-05-18T15:17:21.638Z,48.00
2018-05-18T15:19:47.965Z,77.10
2018-05-18T15:22:14.515Z,46.30
2018-05-18T15:24:41.523Z,45.90
2018-05-18T15:27:07.715Z,57.40
2018-05-18T15:29:34.313Z,57.00
2018-05-18T15:34:29.978Z,48.10
2018-05-18T15:36:56.220Z,77.30
2018-05-18T15:39:23.094Z,78.10
2018-05-18T15:46:45.061Z,83.80
2018-05-18T15:59:02.894Z,74.20
2018-05-18T16:08:52.781Z,81.20
2018-05-18T16:13:50.851Z,48.70
2018-05-18T16:16:17.058Z,76.00
2018-05-18T16:18:43.297Z,68.60
2018-05-18T16:23:38.189Z,50.20
2018-05-18T16:26:04.874Z,51.70
2018-05-18T16:30:59.367Z,48.20
2018-05-18T16:33:26.346Z,47.70
2018-05-18T16:35:53.251Z,47.60
2018-05-18T16:38:19.546Z,55.90
2018-05-18T16:43:14.047Z,48.50
2018-05-18T16:45:40.246Z,60.40
2018-05-18T16:48:06.485Z,50.30
2018-05-18T16:50:32.728Z,58.60
2018-05-18T16:52:59.876Z,49.80
2018-05-18T16:57:55.964Z,48.90
2018-05-18T17:00:22.931Z,49.70
2018-05-18T17:02:49.901Z,49.30
2018-05-18T17:05:16.527Z,50.70
2018-05-18T17:07:42.748Z,53.20
2018-05-18T17:10:09.661Z,49.60
2018-05-18T17:12:36.622Z,49.50
2018-05-18T17:15:02.888Z,58.10
2018-05-18T17:17:29.083Z,50.80
2018-05-18T17:19:56.187Z,49.40
2018-05-18T17:22:23.155Z,49.50
2018-05-18T17:24:49.747Z,49.50
2018-05-18T17:27:16.700Z,50.30
2018-05-18T17:29:42.855Z,56.80
2018-05-18T17:32:09.124Z,63.10
2018-05-18T17:34:35.352Z,59.60
2018-05-18T17:37:01.566Z,55.50
2018-05-18T17:39:28.534Z,52.90
2018-05-18T17:41:54.754Z,57.20
2018-05-18T17:44:21.024Z,62.30
2018-05-18T17:46:47.986Z,55.40
2018-05-18T17:49:14.599Z,54.50
2018-05-18T17:51:40.831Z,59.80
2018-05-18T17:54:07.034Z,71.00
2018-05-18T17:56:33.253Z,58.40
2018-05-18T17:58:59.957Z,54.70
2018-05-18T18:01:26.196Z,56.10
2018-05-18T18:03:52.746Z,55.40
2018-05-18T18:06:18.984Z,81.60
2018-05-18T18:08:45.994Z,55.40
2018-05-18T18:11:13.074Z,56.10
2018-05-18T18:13:39.331Z,70.00
2018-05-18T18:16:05.570Z,76.80
2018-05-18T18:18:32.041Z,56.90
2018-05-18T18:20:59.068Z,57.20
2018-05-18T18:23:26.034Z,57.40
2018-05-18T18:25:53.069Z,57.50
2018-05-18T18:28:20.058Z,57.90
2018-05-18T18:30:46.315Z,80.50
2018-05-18T18:33:12.509Z,84.90
2018-05-18T18:35:39.818Z,58.90
2018-05-18T18:38:05.999Z,58.60
2018-05-18T18:40:32.595Z,58.10
2018-05-18T18:42:59.536Z,58.80
2018-05-18T18:45:26.881Z,59.20
2018-05-18T18:47:53.121Z,59.00
2018-05-18T18:50:20.085Z,59.30
2018-05-18T18:52:48.240Z,59.30
2018-05-18T18:55:15.545Z,59.20
2018-05-18T18:57:41.966Z,59.30
2018-05-18T19:00:08.399Z,59.10
2018-05-18T19:02:34.723Z,59.10
2018-05-18T19:05:00.968Z,59.50
2018-05-18T19:07:27.922Z,59.40
2018-05-18T19:09:55.726Z,65.30
2018-05-18T19:12:22.518Z,86.00
2018-05-18T19:14:48.818Z,59.70
2018-05-18T19:17:30.725Z,60.40
2018-05-18T19:19:56.898Z,70.30
2018-05-18T19:22:23.576Z,59.20
2018-05-18T19:24:50.118Z,61.80
2018-05-18T19:27:17.753Z,60.80
2018-05-18T19:29:45.250Z,60.30
2018-05-18T19:32:11.446Z,60.10
2018-05-18T19:34:37.664Z,60.40
2018-05-18T19:37:03.905Z,60.60
2018-05-18T19:39:30.192Z,60.60
2018-05-18T19:41:56.417Z,60.50
2018-05-18T19:44:23.029Z,60.70
2018-05-18T19:46:49.252Z,61.50
2018-05-18T19:49:16.223Z,63.30
2018-05-18T19:51:42.416Z,63.90
2018-05-18T19:54:09.536Z,65.30
2018-05-18T19:56:35.726Z,64.60
2018-05-18T19:59:02.402Z,66.20
2018-05-18T20:01:29.004Z,77.80
2018-05-18T20:03:55.312Z,64.50
2018-05-18T20:06:21.830Z,64.40
2018-05-18T20:08:48.055Z,65.20
2018-05-18T20:11:14.307Z,65.50
2018-05-18T20:13:41.291Z,66.50
2018-05-18T20:16:07.586Z,66.40
2018-05-18T20:18:34.568Z,65.60
2018-05-18T20:21:00.816Z,65.60
2018-05-18T20:23:27.056Z,63.80
2018-05-18T20:25:53.282Z,62.90
2018-05-18T20:28:19.473Z,63.60
2018-05-18T20:30:45.752Z,64.20
2018-05-18T20:33:11.984Z,63.20
2018-05-18T20:35:38.193Z,63.60
2018-05-18T20:38:04.498Z,63.20
2018-05-18T20:40:30.671Z,63.90
2018-05-18T20:42:56.876Z,63.80
2018-05-18T20:45:23.113Z,64.50
2018-05-18T20:47:49.494Z,64.20
2018-05-18T20:50:15.704Z,64.10
2018-05-18T20:52:42.726Z,65.00
2018-05-18T20:55:08.918Z,63.60
2018-05-18T20:57:35.194Z,63.30
2018-05-18T21:00:01.483Z,63.40
2018-05-18T21:02:27.709Z,63.30
2018-05-18T21:04:54.158Z,63.70
2018-05-18T21:07:20.441Z,64.30
2018-05-18T21:09:47.555Z,64.90
2018-05-18T21:12:14.185Z,64.30
2018-05-18T21:14:40.413Z,65.00
2018-05-18T21:17:06.645Z,65.00
2018-05-18T21:19:32.855Z,65.00
2018-05-18T21:21:59.087Z,65.10
2018-05-18T21:24:25.329Z,65.00
2018-05-18T21:26:51.565Z,65.70
2018-05-18T21:29:17.793Z,65.10
2018-05-18T21:31:44.046Z,64.90
2018-05-18T21:34:10.329Z,65.00
2018-05-18T21:36:36.651Z,64.90
2018-05-18T21:39:03.008Z,64.90
2018-05-18T21:41:29.256Z,64.70
2018-05-18T21:43:55.575Z,64.50
2018-05-18T21:46:21.918Z,64.30
2018-05-18T21:48:48.140Z,64.20
2018-05-18T21:51:14.457Z,64.40
2018-05-18T21:53:40.700Z,64.80
2018-05-18T21:56:07.716Z,64.60
2018-05-18T21:58:34.710Z,64.70
2018-05-18T22:01:00.923Z,64.60
2018-05-18T22:03:27.874Z,64.20
2018-05-18T22:05:56.558Z,63.90
2018-05-18T22:08:22.734Z,64.70
2018-05-18T22:10:49.673Z,65.20
2018-05-18T22:13:16.577Z,65.20
2018-05-18T22:15:42.744Z,64.50
2018-05-18T22:18:09.670Z,65.50
2018-05-18T22:20:36.018Z,64.60
2018-05-18T22:23:03.348Z,64.50
2018-05-18T22:25:30.416Z,64.50
2018-05-18T22:27:57.417Z,65.10
2018-05-18T22:30:23.651Z,65.20
2018-05-18T22:32:50.294Z,64.10
2018-05-18T22:35:16.516Z,64.00
2018-05-18T22:37:43.557Z,63.50
2018-05-18T22:40:09.783Z,63.20
2018-05-18T22:42:35.980Z,63.10
2018-05-18T22:45:02.686Z,62.80
2018-05-18T22:47:28.751Z,63.00
2018-05-18T22:49:55.644Z,63.00
2018-05-18T22:52:21.835Z,63.00
2018-05-18T22:54:48.059Z,63.10
2018-05-18T22:57:14.303Z,62.80
2018-05-18T22:59:40.489Z,62.90
2018-05-18T23:02:07.492Z,63.40
2018-05-18T23:04:33.687Z,62.90
2018-05-18T23:06:59.920Z,62.60
2018-05-18T23:09:26.130Z,62.60
2018-05-18T23:11:53.110Z,63.10
2018-05-18T23:14:19.335Z,62.30
2018-05-18T23:16:45.535Z,62.10
2018-05-18T23:19:12.476Z,62.60
2018-05-18T23:21:39.410Z,62.80
2018-05-18T23:24:06.380Z,63.50
2018-05-18T23:26:33.385Z,62.60
2018-05-18T23:28:59.591Z,62.00
2018-05-18T23:31:25.813Z,62.50
2018-05-18T23:33:52.105Z,62.60
2018-05-18T23:36:19.067Z,63.20
2018-05-18T23:38:45.305Z,62.80
2018-05-18T23:41:11.504Z,62.80
2018-05-18T23:43:38.659Z,63.30
2018-05-18T23:46:05.605Z,63.30
2018-05-18T23:48:32.573Z,63.20
2018-05-18T23:50:58.768Z,62.90
2018-05-18T23:53:25.708Z,63.60
2018-05-18T23:55:51.935Z,63.30
2018-05-18T23:58:18.175Z,63.30
